createdAt,value
2018-09-11T00:01:15.289Z,97303.19
2018-09-11T00:03:42.526Z,97299.38
2018-09-11T00:06:09.785Z,97301.13
2018-09-11T00:08:36.970Z,97298.38
2018-09-11T00:11:04.295Z,97296.36
2018-09-11T00:13:31.523Z,97299.56
2018-09-11T00:15:58.765Z,97296.98
2018-09-11T00:18:26.199Z,97301.17
2018-09-11T00:20:53.491Z,97300.94
2018-09-11T00:23:20.663Z,97301.55
2018-09-11T00:25:47.966Z,97302.42
2018-09-11T00:28:15.206Z,97305.63
2018-09-11T00:30:42.473Z,97304.16
2018-09-11T00:33:09.768Z,97296.69
2018-09-11T00:35:37.032Z,97303.67
2018-09-11T00:38:04.253Z,97290.63
2018-09-11T00:40:31.503Z,97285.64
2018-09-11T00:42:58.752Z,97290.66
2018-09-11T00:45:26.052Z,97282.28
2018-09-11T00:47:53.302Z,97284.68
2018-09-11T00:50:20.553Z,97285.64
2018-09-11T00:52:47.795Z,97281.55
2018-09-11T00:55:15.028Z,97285.14
2018-09-11T00:57:42.297Z,97290.15
2018-09-11T01:00:09.589Z,97287.16
2018-09-11T01:02:36.862Z,97284.93
2018-09-11T01:05:04.096Z,97291.75
2018-09-11T01:07:33.652Z,97296.88
2018-09-11T01:10:01.271Z,97292.34
2018-09-11T01:12:28.460Z,97297.39
2018-09-11T01:14:55.753Z,97303.03
2018-09-11T01:17:22.965Z,97300.44
2018-09-11T01:19:50.150Z,97301.63
2018-09-11T01:22:17.421Z,97306.20
2018-09-11T01:24:44.645Z,97308.97
2018-09-11T01:27:11.883Z,97308.59
2018-09-11T01:29:39.126Z,97308.47
2018-09-11T01:32:06.433Z,97310.41
2018-09-11T01:34:33.646Z,97318.42
2018-09-11T01:37:00.927Z,97316.38
2018-09-11T01:39:28.170Z,97318.91
2018-09-11T01:41:55.432Z,97321.90
2018-09-11T01:44:22.676Z,97321.64
2018-09-11T01:46:49.845Z,97325.00
2018-09-11T01:49:17.152Z,97327.39
2018-09-11T01:51:44.329Z,97327.64
2018-09-11T01:54:11.583Z,97331.77
2018-09-11T01:56:38.811Z,97335.12
2018-09-11T01:59:06.018Z,97328.54
2018-09-11T02:01:33.253Z,97334.87
2018-09-11T02:04:00.465Z,97332.84
2018-09-11T02:06:27.669Z,97330.17
2018-09-11T02:08:54.878Z,97336.14
2018-09-11T02:11:22.143Z,97332.94
2018-09-11T02:13:49.662Z,97342.77
2018-09-11T02:16:16.850Z,97343.47
2018-09-11T02:18:44.065Z,97332.80
2018-09-11T02:21:11.253Z,97339.52
2018-09-11T02:23:38.441Z,97338.05
2018-09-11T02:26:05.757Z,97334.50
2018-09-11T02:28:32.952Z,97332.73
2018-09-11T02:31:00.113Z,97335.01
2018-09-11T02:33:27.340Z,97339.07
2018-09-11T02:35:54.825Z,97338.84
2018-09-11T02:38:21.913Z,97344.81
2018-09-11T02:40:49.131Z,97345.16
2018-09-11T02:43:16.392Z,97345.98
2018-09-11T02:45:43.620Z,97339.84
2018-09-11T02:48:10.887Z,97340.98
2018-09-11T02:50:38.093Z,97345.38
2018-09-11T02:53:05.405Z,97341.33
2018-09-11T02:55:32.699Z,97343.14
2018-09-11T02:57:59.919Z,97348.24
2018-09-11T03:00:27.191Z,97351.23
2018-09-11T03:02:54.416Z,97355.41
2018-09-11T03:05:21.638Z,97352.90
2018-09-11T03:07:48.872Z,97361.38
2018-09-11T03:10:16.141Z,97359.13
2018-09-11T03:12:43.340Z,97364.64
2018-09-11T03:15:10.563Z,97370.68
2018-09-11T03:17:37.850Z,97369.41
2018-09-11T03:20:05.107Z,97368.16
2018-09-11T03:22:32.319Z,97368.82
2018-09-11T03:24:59.535Z,97376.70
2018-09-11T03:27:26.861Z,97374.14
2018-09-11T03:29:54.011Z,97375.53
2018-09-11T03:32:21.242Z,97376.91
2018-09-11T03:34:48.460Z,97381.70
2018-09-11T03:37:15.707Z,97364.27
2018-09-11T03:39:42.915Z,97378.05
2018-09-11T03:42:10.139Z,97375.89
2018-09-11T03:44:37.366Z,97379.83
2018-09-11T03:47:04.744Z,97378.12
2018-09-11T03:49:31.974Z,97380.19
2018-09-11T03:51:59.230Z,97376.74
2018-09-11T03:54:26.553Z,97384.42
2018-09-11T03:56:53.777Z,97382.22
2018-09-11T03:59:21.012Z,97387.70
2018-09-11T04:01:48.222Z,97389.38
2018-09-11T04:04:15.459Z,97389.70
2018-09-11T04:06:42.674Z,97390.75
2018-09-11T04:09:11.413Z,97397.41
2018-09-11T04:11:41.659Z,97400.40
2018-09-11T04:14:08.908Z,97400.56
2018-09-11T04:16:36.194Z,97398.03
2018-09-11T04:19:03.415Z,97396.95
2018-09-11T04:21:30.647Z,97396.20
2018-09-11T04:23:58.011Z,97403.20
2018-09-11T04:26:25.296Z,97394.99
2018-09-11T04:28:52.541Z,97393.38
2018-09-11T04:31:19.859Z,97391.64
2018-09-11T04:33:47.168Z,97384.89
2018-09-11T04:36:14.517Z,97389.82
2018-09-11T04:38:41.739Z,97388.19
2018-09-11T04:41:09.056Z,97392.27
2018-09-11T04:43:36.342Z,97391.64
2018-09-11T04:46:03.550Z,97395.22
2018-09-11T04:48:30.760Z,97390.33
2018-09-11T04:50:58.060Z,97392.37
2018-09-11T04:53:25.251Z,97397.16
2018-09-11T04:55:52.483Z,97390.50
2018-09-11T04:58:19.726Z,97388.34
2018-09-11T05:00:47.037Z,97394.38
2018-09-11T05:03:14.557Z,97394.69
2018-09-11T05:05:41.769Z,97397.45
2018-09-11T05:08:09.033Z,97396.36
2018-09-11T05:10:36.271Z,97391.97
2018-09-11T05:13:03.460Z,97398.30
2018-09-11T05:15:30.757Z,97400.07
2018-09-11T05:17:57.989Z,97404.28
2018-09-11T05:20:25.236Z,97403.76
2018-09-11T05:22:52.519Z,97406.22
2018-09-11T05:25:19.775Z,97406.80
2018-09-11T05:27:46.985Z,97416.03
2018-09-11T05:30:14.212Z,97415.08
2018-09-11T05:32:41.462Z,97422.63
2018-09-11T05:35:08.721Z,97414.23
2018-09-11T05:37:35.932Z,97428.22
2018-09-11T05:40:03.196Z,97423.00
2018-09-11T05:42:30.465Z,97416.70
2018-09-11T05:44:57.649Z,97426.02
2018-09-11T05:47:24.891Z,97425.66
2018-09-11T05:49:52.087Z,97424.64
2018-09-11T05:52:19.377Z,97417.64
2018-09-11T05:54:46.623Z,97423.14
2018-09-11T05:57:13.883Z,97422.98
2018-09-11T05:59:41.102Z,97422.27
2018-09-11T06:02:08.514Z,97423.19
2018-09-11T06:04:35.766Z,97422.06
2018-09-11T06:07:03.122Z,97428.31
2018-09-11T06:09:30.397Z,97433.11
2018-09-11T06:11:57.599Z,97436.95
2018-09-11T06:14:24.786Z,97438.28
2018-09-11T06:16:52.022Z,97437.08
2018-09-11T06:19:19.257Z,97441.03
2018-09-11T06:21:46.457Z,97436.98
2018-09-11T06:24:13.668Z,97432.82
2018-09-11T06:26:40.822Z,97428.80
2018-09-11T06:29:08.078Z,97426.86
2018-09-11T06:31:35.277Z,97434.44
2018-09-11T06:34:02.715Z,97443.30
2018-09-11T06:36:29.962Z,97442.21
2018-09-11T06:38:57.199Z,97444.86
2018-09-11T06:41:24.480Z,97448.32
2018-09-11T06:43:51.752Z,97444.56
2018-09-11T06:46:18.955Z,97441.91
2018-09-11T06:48:46.217Z,97444.36
2018-09-11T06:51:13.447Z,97437.03
2018-09-11T06:53:40.614Z,97435.59
2018-09-11T06:56:07.902Z,97437.69
2018-09-11T06:58:35.130Z,97433.44
2018-09-11T07:01:02.339Z,97431.63
2018-09-11T07:03:29.556Z,97433.86
2018-09-11T07:05:56.816Z,97431.58
2018-09-11T07:08:24.042Z,97432.12
2018-09-11T07:10:51.292Z,97433.28
2018-09-11T07:13:18.503Z,97432.99
2018-09-11T07:15:45.786Z,97432.63
2018-09-11T07:18:12.942Z,97433.41
2018-09-11T07:20:40.157Z,97431.55
2018-09-11T07:23:07.368Z,97427.36
2018-09-11T07:25:34.565Z,97430.81
2018-09-11T07:28:01.776Z,97428.98
2018-09-11T07:30:29.092Z,97433.33
2018-09-11T07:32:56.283Z,97433.33
2018-09-11T07:35:23.518Z,97430.30
2018-09-11T07:37:50.884Z,97425.43
2018-09-11T07:40:18.132Z,97421.55
2018-09-11T07:42:45.334Z,97427.58
2018-09-11T07:45:12.584Z,97430.48
2018-09-11T07:47:41.534Z,97429.98
2018-09-11T07:50:08.803Z,97436.50
2018-09-11T07:52:36.106Z,97438.48
2018-09-11T07:55:03.399Z,97439.97
2018-09-11T07:57:30.645Z,97432.28
2018-09-11T07:59:57.951Z,97440.72
2018-09-11T08:02:25.152Z,97444.69
2018-09-11T08:04:52.409Z,97440.39
2018-09-11T08:07:19.683Z,97443.34
2018-09-11T08:09:46.917Z,97437.14
2018-09-11T08:12:14.158Z,97446.49
2018-09-11T08:14:41.585Z,97444.16
2018-09-11T08:17:08.794Z,97442.73
2018-09-11T08:19:36.068Z,97433.88
2018-09-11T08:22:03.233Z,97427.24
2018-09-11T08:24:30.429Z,97428.42
2018-09-11T08:26:57.694Z,97426.71
2018-09-11T08:29:24.986Z,97433.96
2018-09-11T08:31:52.216Z,97435.38
2018-09-11T08:34:19.463Z,97432.34
2018-09-11T08:36:46.694Z,97428.77
2018-09-11T08:39:13.938Z,97433.16
2018-09-11T08:41:41.165Z,97431.67
2018-09-11T08:44:08.474Z,97434.49
2018-09-11T08:46:35.951Z,97433.49
2018-09-11T08:49:03.229Z,97436.16
2018-09-11T08:51:30.436Z,97438.02
2018-09-11T08:53:57.681Z,97430.77
2018-09-11T08:56:24.907Z,97437.63
2018-09-11T08:58:52.130Z,97432.15
2018-09-11T09:01:19.404Z,97433.16
2018-09-11T09:03:46.658Z,97436.66
2018-09-11T09:06:13.927Z,97437.48
2018-09-11T09:08:41.148Z,97433.13
2018-09-11T09:11:08.367Z,97424.45
2018-09-11T09:13:35.578Z,97420.78
2018-09-11T09:16:02.877Z,97421.69
2018-09-11T09:18:30.098Z,97420.69
2018-09-11T09:20:57.463Z,97426.44
2018-09-11T09:23:24.684Z,97431.04
2018-09-11T09:25:51.914Z,97426.67
2018-09-11T09:28:19.195Z,97426.31
2018-09-11T09:30:46.418Z,97422.22
2018-09-11T09:33:13.722Z,97424.33
2018-09-11T09:35:40.879Z,97430.59
2018-09-11T09:38:08.890Z,97421.69
2018-09-11T09:40:36.098Z,97421.77
2018-09-11T09:43:03.361Z,97422.90
2018-09-11T09:45:30.614Z,97423.94
2018-09-11T09:47:57.866Z,97416.48
2018-09-11T09:50:25.095Z,97414.50
2018-09-11T09:52:52.371Z,97407.75
2018-09-11T09:55:19.702Z,97412.98
2018-09-11T09:57:46.935Z,97406.30
2018-09-11T10:00:18.904Z,97410.00
2018-09-11T10:02:46.239Z,97405.77
2018-09-11T10:05:13.513Z,97408.70
2018-09-11T10:07:40.734Z,97406.86
2018-09-11T10:10:08.003Z,97402.22
2018-09-11T10:12:35.279Z,97398.39
2018-09-11T10:15:02.522Z,97397.27
2018-09-11T10:17:29.824Z,97372.53
2018-09-11T10:19:57.252Z,97401.93
2018-09-11T10:22:24.508Z,97397.59
2018-09-11T10:24:51.808Z,97388.20
2018-09-11T10:27:19.098Z,97386.20
2018-09-11T10:29:46.303Z,97391.84
2018-09-11T10:32:13.539Z,97390.34
2018-09-11T10:34:40.771Z,97396.31
2018-09-11T10:37:08.048Z,97388.30
2018-09-11T10:39:35.369Z,97386.19
2018-09-11T10:42:02.648Z,97390.63
2018-09-11T10:44:29.944Z,97388.39
2018-09-11T10:46:58.262Z,97385.66
2018-09-11T10:49:25.506Z,97376.19
2018-09-11T10:51:52.768Z,97376.49
2018-09-11T10:54:20.044Z,97381.54
2018-09-11T10:56:47.336Z,97372.47
2018-09-11T10:59:14.637Z,97371.66
2018-09-11T11:01:41.896Z,97362.63
2018-09-11T11:04:09.251Z,97361.37
2018-09-11T11:06:36.478Z,97362.01
2018-09-11T11:09:05.970Z,97357.45
2018-09-11T11:11:33.203Z,97365.09
2018-09-11T11:14:00.508Z,97363.37
2018-09-11T11:16:27.752Z,97351.48
2018-09-11T11:18:55.017Z,97352.62
2018-09-11T11:21:22.213Z,97354.11
2018-09-11T11:23:49.527Z,97357.16
2018-09-11T11:26:16.739Z,97346.98
2018-09-11T11:28:44.001Z,97342.84
2018-09-11T11:31:11.219Z,97335.97
2018-09-11T11:33:38.508Z,97333.61
2018-09-11T11:36:07.038Z,97336.73
2018-09-11T11:38:34.192Z,97333.30
2018-09-11T11:41:01.364Z,97334.40
2018-09-11T11:43:28.643Z,97332.09
2018-09-11T11:45:55.840Z,97330.50
2018-09-11T11:48:23.225Z,97328.64
2018-09-11T11:50:50.368Z,97327.78
2018-09-11T11:53:17.571Z,97324.48
2018-09-11T11:55:44.903Z,97319.84
2018-09-11T11:58:12.126Z,97312.58
2018-09-11T12:00:39.451Z,97319.93
2018-09-11T12:03:07.414Z,97309.52
2018-09-11T12:05:34.667Z,97308.15
2018-09-11T12:08:01.922Z,97295.29
2018-09-11T12:10:29.221Z,97304.04
2018-09-11T12:12:56.436Z,97304.83
2018-09-11T12:15:23.651Z,97307.55
2018-09-11T12:17:50.962Z,97302.02
2018-09-11T12:20:18.207Z,97308.45
2018-09-11T12:22:45.505Z,97302.59
2018-09-11T12:25:12.802Z,97297.78
2018-09-11T12:27:40.066Z,97293.42
2018-09-11T12:30:07.363Z,97291.14
2018-09-11T12:32:34.690Z,97296.94
2018-09-11T12:35:01.971Z,97292.63
2018-09-11T12:37:29.184Z,97285.45
2018-09-11T12:39:56.446Z,97291.39
2018-09-11T12:42:23.727Z,97295.07
2018-09-11T12:44:51.013Z,97286.34
2018-09-11T12:47:18.487Z,97283.84
2018-09-11T12:49:45.578Z,97286.04
2018-09-11T12:52:12.841Z,97286.20
2018-09-11T12:54:40.097Z,97284.06
2018-09-11T12:57:07.414Z,97283.52
2018-09-11T12:59:34.703Z,97281.36
2018-09-11T13:02:01.998Z,97281.73
2018-09-11T13:04:29.284Z,97282.83
2018-09-11T13:06:56.632Z,97271.38
2018-09-11T13:09:24.045Z,97275.31
2018-09-11T13:11:51.517Z,97270.23
2018-09-11T13:14:20.426Z,97265.59
2018-09-11T13:16:47.624Z,97270.61
2018-09-11T13:19:14.833Z,97265.91
2018-09-11T13:21:42.157Z,97263.61
2018-09-11T13:24:09.426Z,97267.04
2018-09-11T13:26:36.703Z,97268.25
2018-09-11T13:29:03.952Z,97266.77
2018-09-11T13:31:31.221Z,97260.55
2018-09-11T13:33:58.621Z,97271.90
2018-09-11T13:36:25.859Z,97263.02
2018-09-11T13:38:53.185Z,97259.13
2018-09-11T13:41:20.457Z,97260.30
2018-09-11T13:43:48.269Z,97256.05
2018-09-11T13:46:15.546Z,97251.58
2018-09-11T13:48:42.742Z,97253.91
2018-09-11T13:51:09.996Z,97250.80
2018-09-11T13:53:37.303Z,97256.91
2018-09-11T13:56:04.637Z,97257.06
2018-09-11T13:58:31.911Z,97254.17
2018-09-11T14:00:59.161Z,97251.78
2018-09-11T14:03:26.456Z,97248.99
2018-09-11T14:05:53.709Z,97248.17
2018-09-11T14:08:21.251Z,97243.26
2018-09-11T14:10:48.534Z,97241.39
2018-09-11T14:13:15.737Z,97245.69
2018-09-11T14:15:42.973Z,97244.28
2018-09-11T14:18:10.209Z,97241.06
2018-09-11T14:20:37.485Z,97237.80
2018-09-11T14:23:04.734Z,97237.89
2018-09-11T14:25:35.046Z,97235.61
2018-09-11T14:28:02.398Z,97238.19
2018-09-11T14:30:29.720Z,97233.17
2018-09-11T14:32:57.017Z,97230.09
2018-09-11T14:35:24.342Z,97223.70
2018-09-11T14:37:51.617Z,97227.35
2018-09-11T14:40:18.943Z,97230.42
2018-09-11T14:42:46.268Z,97226.55
2018-09-11T14:45:13.504Z,97235.58
2018-09-11T14:47:42.800Z,97236.09
2018-09-11T14:50:10.859Z,97234.23
2018-09-11T14:52:38.443Z,97227.44
2018-09-11T14:55:05.826Z,97230.88
2018-09-11T14:57:33.424Z,97228.01
2018-09-11T15:00:00.739Z,97228.42
2018-09-11T15:02:28.098Z,97225.16
2018-09-11T15:04:55.645Z,97222.09
2018-09-11T15:07:23.160Z,97217.23
2018-09-11T15:09:50.396Z,97206.77
2018-09-11T15:12:17.654Z,97212.95
2018-09-11T15:14:44.932Z,97208.77
2018-09-11T15:17:12.195Z,97210.59
2018-09-11T15:19:39.503Z,97205.67
2018-09-11T15:22:06.802Z,97209.64
2018-09-11T15:24:34.031Z,97208.38
2018-09-11T15:27:01.241Z,97206.59
2018-09-11T15:29:28.467Z,97198.73
2018-09-11T15:31:55.644Z,97203.33
2018-09-11T15:34:22.974Z,97203.21
2018-09-11T15:36:50.253Z,97200.23
2018-09-11T15:39:17.469Z,97191.36
2018-09-11T15:41:44.748Z,97199.13
2018-09-11T15:44:12.142Z,97190.80
2018-09-11T15:46:39.428Z,97193.14
2018-09-11T15:49:06.703Z,97197.36
2018-09-11T15:51:34.186Z,97196.33
2018-09-11T15:54:01.442Z,97192.59
2018-09-11T15:56:28.704Z,97190.92
2018-09-11T15:58:55.913Z,97185.58
2018-09-11T16:01:23.178Z,97176.36
2018-09-11T16:03:50.402Z,97170.30
2018-09-11T16:06:17.782Z,97173.95
2018-09-11T16:08:45.072Z,97173.90
2018-09-11T16:11:12.378Z,97174.42
2018-09-11T16:13:39.676Z,97176.19
2018-09-11T16:16:06.897Z,97172.80
2018-09-11T16:18:34.182Z,97175.48
2018-09-11T16:21:01.558Z,97178.40
2018-09-11T16:23:28.790Z,97184.31
2018-09-11T16:25:56.095Z,97178.39
2018-09-11T16:28:23.353Z,97180.27
2018-09-11T16:30:50.528Z,97177.45
2018-09-11T16:33:17.796Z,97167.83
2018-09-11T16:35:45.088Z,97166.22
2018-09-11T16:38:12.316Z,97164.98
2018-09-11T16:40:39.738Z,97167.45
2018-09-11T16:43:07.045Z,97171.61
2018-09-11T16:45:34.297Z,97170.03
2018-09-11T16:48:01.559Z,97170.19
2018-09-11T16:50:28.873Z,97171.34
2018-09-11T16:52:56.102Z,97171.77
2018-09-11T16:55:23.367Z,97180.77
2018-09-11T16:57:50.696Z,97176.05
2018-09-11T17:00:17.910Z,97183.98
2018-09-11T17:02:45.248Z,97184.14
2018-09-11T17:05:12.532Z,97190.01
2018-09-11T17:07:39.813Z,97187.63
2018-09-11T17:10:07.155Z,97190.52
2018-09-11T17:12:34.378Z,97186.51
2018-09-11T17:15:01.585Z,97188.37
2018-09-11T17:17:28.838Z,97187.47
2018-09-11T17:19:56.144Z,97183.71
2018-09-11T17:22:23.365Z,97190.88
2018-09-11T17:24:51.389Z,97194.92
2018-09-11T17:27:18.695Z,97194.73
2018-09-11T17:29:45.854Z,97187.41
2018-09-11T17:32:13.111Z,97194.23
2018-09-11T17:34:40.343Z,97201.25
2018-09-11T17:37:07.617Z,97195.68
2018-09-11T17:39:34.881Z,97194.25
2018-09-11T17:42:02.211Z,97196.00
2018-09-11T17:44:29.465Z,97198.25
2018-09-11T17:46:56.805Z,97193.47
2018-09-11T17:49:24.057Z,97183.47
2018-09-11T17:51:51.336Z,97202.86
2018-09-11T17:54:18.545Z,97202.58
2018-09-11T17:56:45.817Z,97199.84
2018-09-11T17:59:13.028Z,97209.35
2018-09-11T18:01:40.265Z,97214.73
2018-09-11T18:04:07.541Z,97214.11
2018-09-11T18:06:34.827Z,97223.14
2018-09-11T18:09:02.139Z,97228.99
2018-09-11T18:11:29.440Z,97236.18
2018-09-11T18:13:56.697Z,97232.52
2018-09-11T18:16:23.904Z,97234.02
2018-09-11T18:18:51.237Z,97231.20
2018-09-11T18:21:18.462Z,97233.22
2018-09-11T18:23:45.815Z,97228.38
2018-09-11T18:26:13.050Z,97231.70
2018-09-11T18:28:40.319Z,97231.20
2018-09-11T18:31:07.655Z,97239.84
2018-09-11T18:33:34.943Z,97238.97
2018-09-11T18:36:03.030Z,97239.64
2018-09-11T18:38:30.336Z,97240.11
2018-09-11T18:40:57.588Z,97242.93
2018-09-11T18:43:24.872Z,97242.25
2018-09-11T18:45:52.161Z,97240.54
2018-09-11T18:48:19.412Z,97251.97
2018-09-11T18:50:46.667Z,97250.41
2018-09-11T18:53:13.970Z,97248.01
2018-09-11T18:55:41.239Z,97246.94
2018-09-11T18:58:08.595Z,97247.89
2018-09-11T19:00:35.812Z,97247.70
2018-09-11T19:03:03.093Z,97249.47
2018-09-11T19:05:30.752Z,97253.92
2018-09-11T19:07:58.725Z,97257.49
2018-09-11T19:10:25.973Z,97257.73
2018-09-11T19:12:53.328Z,97262.66
2018-09-11T19:15:20.623Z,97262.65
2018-09-11T19:17:47.839Z,97263.12
2018-09-11T19:20:15.188Z,97262.41
2018-09-11T19:22:42.428Z,97261.48
2018-09-11T19:25:09.706Z,97255.12
2018-09-11T19:27:36.903Z,97262.67
2018-09-11T19:30:05.415Z,97264.73
2018-09-11T19:32:32.638Z,97260.25
2018-09-11T19:34:59.903Z,97265.81
2018-09-11T19:37:27.119Z,97264.00
2018-09-11T19:39:54.315Z,97264.66
2018-09-11T19:42:21.596Z,97265.22
2018-09-11T19:44:48.827Z,97264.52
2018-09-11T19:47:16.128Z,97269.25
2018-09-11T19:49:43.356Z,97269.39
2018-09-11T19:52:10.536Z,97265.65
2018-09-11T19:54:37.824Z,97266.60
2018-09-11T19:57:05.203Z,97263.44
2018-09-11T19:59:32.458Z,97268.98
2018-09-11T20:01:59.669Z,97270.48
2018-09-11T20:04:26.922Z,97269.33
2018-09-11T20:06:54.254Z,97263.31
2018-09-11T20:09:21.502Z,97264.77
2018-09-11T20:11:48.751Z,97267.49
2018-09-11T20:14:15.917Z,97270.08
2018-09-11T20:16:43.164Z,97266.23
2018-09-11T20:19:10.415Z,97270.66
2018-09-11T20:21:37.704Z,97270.32
2018-09-11T20:24:05.037Z,97271.44
2018-09-11T20:26:32.369Z,97270.73
2018-09-11T20:28:59.646Z,97265.37
2018-09-11T20:31:26.820Z,97267.60
2018-09-11T20:33:54.175Z,97270.59
2018-09-11T20:36:21.396Z,97266.84
2018-09-11T20:38:48.677Z,97270.46
2018-09-11T20:41:15.918Z,97271.91
2018-09-11T20:43:43.155Z,97267.52
2018-09-11T20:46:10.382Z,97274.69
2018-09-11T20:48:37.654Z,97277.50
2018-09-11T20:51:04.876Z,97276.09
2018-09-11T20:53:32.167Z,97279.50
2018-09-11T20:55:59.464Z,97274.50
2018-09-11T20:58:26.569Z,97278.94
2018-09-11T21:00:53.718Z,97277.28
2018-09-11T21:03:21.009Z,97276.08
2018-09-11T21:05:48.435Z,97276.50
2018-09-11T21:08:15.683Z,97272.58
2018-09-11T21:10:42.871Z,97275.28
2018-09-11T21:13:10.181Z,97273.27
2018-09-11T21:15:37.389Z,97276.80
2018-09-11T21:18:04.621Z,97270.73
2018-09-11T21:20:31.875Z,97277.33
2018-09-11T21:22:59.183Z,97278.81
2018-09-11T21:25:26.422Z,97279.47
2018-09-11T21:27:53.691Z,97278.84
2018-09-11T21:30:20.928Z,97274.81
2018-09-11T21:32:48.250Z,97275.38
2018-09-11T21:35:15.508Z,97278.15
2018-09-11T21:37:42.722Z,97282.45
2018-09-11T21:40:09.982Z,97284.81
2018-09-11T21:42:37.311Z,97288.26
2018-09-11T21:45:04.761Z,97291.30
2018-09-11T21:47:32.069Z,97286.80
2018-09-11T21:49:59.367Z,97287.19
2018-09-11T21:52:26.601Z,97291.90
2018-09-11T21:54:53.992Z,97290.33
2018-09-11T21:57:21.275Z,97288.50
2018-09-11T21:59:48.572Z,97286.72
2018-09-11T22:02:15.839Z,97284.11
2018-09-11T22:04:43.073Z,97291.54
2018-09-11T22:07:10.320Z,97294.18
2018-09-11T22:09:37.565Z,97287.23
2018-09-11T22:12:05.093Z,97288.23
2018-09-11T22:14:32.294Z,97290.03
2018-09-11T22:16:59.559Z,97288.63
2018-09-11T22:19:26.835Z,97292.50
2018-09-11T22:21:54.136Z,97286.46
2018-09-11T22:24:21.391Z,97286.19
2018-09-11T22:26:48.642Z,97284.48
2018-09-11T22:29:15.836Z,97287.35
2018-09-11T22:31:43.108Z,97287.47
2018-09-11T22:34:10.316Z,97283.94
2018-09-11T22:36:37.603Z,97280.68
2018-09-11T22:39:06.357Z,97284.14
2018-09-11T22:41:33.699Z,97282.97
2018-09-11T22:44:00.913Z,97270.91
2018-09-11T22:46:28.250Z,97275.52
2018-09-11T22:48:55.467Z,97275.52
2018-09-11T22:51:22.713Z,97274.42
2018-09-11T22:53:49.877Z,97272.37
2018-09-11T22:56:17.125Z,97275.52
2018-09-11T22:58:44.387Z,97273.17
2018-09-11T23:01:11.908Z,97270.41
2018-09-11T23:03:39.124Z,97277.64
2018-09-11T23:06:06.411Z,97273.06
2018-09-11T23:08:33.637Z,97267.56
2018-09-11T23:11:00.824Z,97274.03
2018-09-11T23:13:28.074Z,97270.92
2018-09-11T23:15:55.302Z,97273.47
2018-09-11T23:18:22.552Z,97276.22
2018-09-11T23:20:49.773Z,97279.58
2018-09-11T23:23:17.042Z,97281.65
2018-09-11T23:25:44.335Z,97279.84
2018-09-11T23:28:11.576Z,97276.51
2018-09-11T23:30:38.818Z,97280.69
2018-09-11T23:33:06.069Z,97277.34
2018-09-11T23:35:33.295Z,97277.01
2018-09-11T23:38:00.576Z,97272.91
2018-09-11T23:40:27.777Z,97279.41
2018-09-11T23:42:55.087Z,97277.95
2018-09-11T23:45:22.274Z,97276.28
2018-09-11T23:47:49.532Z,97272.08
2018-09-11T23:50:16.762Z,97269.83
2018-09-11T23:52:44.074Z,97260.73
2018-09-11T23:55:11.339Z,97261.83
2018-09-11T23:57:38.544Z,97265.06
